Gilroy, CA (95020)

3:46 AM PDT on August 28, 2015 (GMT -0700)
Gilroy - Las Animas | | Change Station
CLOSE
Current Station
Personal Weather Station
Location: Gilroy, CA
Elevation: 210 ft
Nearby Weather Stations

Elev 210 ft 37.02 °N, 121.59 °W | Updated 6 seconds ago

Clear
Clear
65.3 °F
Feels Like 65.3 °F
N
3.0
Wind Variable Wind from North
Gusts 3.8 mph

Today
High -- | Low -- °F
--% Chance of Precip.
Yesterday
High -- | Low -- °F
Precip. -- in
6:33 AM 7:40 PM
Waxing Gibbous, 97% visible
Pressure 29.96 in
Visibility 10.0 miles
Clouds Clear
Dew Point 50 °F
Humidity 58%
Rainfall 0.00 in
Snow Depth Not available.
UV 0 out of 12
Pollen 6.50 out of 12
Air Quality Not available.
Flu Activity Not available.
METAR KE16 281030Z AUTO 34006KT 10SM CLR 18/10 A2996 RMK AO2 SOUTH WIND SOCK OUT OF SERVICE
Pressure 29.96 in
Visibility 10.0 miles
Clouds Clear
Dew Point 50 °F
Humidity 58%
Rainfall 0.00 in
Snow Depth Not available.
UV 0 out of 12
Pollen 6.50 out of 12
Air Quality Not available.
Flu Activity Not available.
METAR KE16 281030Z AUTO 34006KT 10SM CLR 18/10 A2996 RMK AO2 SOUTH WIND SOCK OUT OF SERVICE

10-Day Weather Forecast

×

Almanac

Astronomy

Aug. 28, 2015 Rise Set
Actual Time
Civil Twilight
Nautical Twilight
Astronomical Twilight
Moon
Length of Visible Light
Length of Day
Tomorrow will be .
, % of the Moon is Illuminated

Today's Extremes

State Highs State Lows

Community

WunderPhotos

Upload Photos

1,850,368 photos uploaded!

WunderBlogs® & News

Nearby

Air Quality

  Air Quality AQ Index Pollutant
Not available.

Snow Depth

Station Depth Elevation

Earthquake Activity

City Distance Mag. Time & Date
Minimum magnitude displayed is 2.5.

Coastal Water Temperatures

Place Temperature

Stations

Nearby Weather Stations

Station Location Temp. Windchill Dew Point Humidity Wind Precip. Elev Updated Type